createdAt,value
2017-10-23T00:02:15.170Z,7.00
2017-10-23T00:04:43.538Z,7.00
2017-10-23T00:07:11.943Z,7.00
2017-10-23T00:09:40.314Z,7.00
2017-10-23T00:12:08.674Z,7.00
2017-10-23T00:14:37.097Z,7.00
2017-10-23T00:17:06.256Z,6.90
2017-10-23T00:19:34.666Z,6.90
2017-10-23T00:22:03.842Z,6.90
2017-10-23T00:24:32.214Z,6.90
2017-10-23T00:27:00.583Z,6.90
2017-10-23T00:29:29.003Z,6.90
2017-10-23T00:31:58.183Z,7.00
2017-10-23T00:34:26.554Z,6.90
2017-10-23T00:36:54.962Z,7.00
2017-10-23T00:39:24.116Z,7.00
2017-10-23T00:41:52.541Z,7.00
2017-10-23T00:44:20.945Z,7.00
2017-10-23T00:46:49.328Z,7.00
2017-10-23T00:49:17.708Z,7.00
2017-10-23T00:51:46.124Z,7.00
2017-10-23T00:54:14.490Z,7.00
2017-10-23T00:56:42.888Z,7.00
2017-10-23T00:59:11.356Z,7.10
2017-10-23T01:01:39.747Z,7.10
2017-10-23T01:04:08.114Z,7.10
2017-10-23T01:06:36.518Z,7.10
2017-10-23T01:09:05.662Z,7.10
2017-10-23T01:11:34.039Z,7.00
2017-10-23T01:14:02.724Z,7.00
2017-10-23T01:16:31.109Z,7.00
2017-10-23T01:18:59.480Z,7.00
2017-10-23T01:21:27.887Z,7.00
2017-10-23T01:23:56.294Z,7.10
2017-10-23T01:26:25.477Z,7.10
2017-10-23T01:28:53.891Z,7.10
2017-10-23T01:31:22.270Z,7.10
2017-10-23T01:33:50.682Z,7.10
2017-10-23T01:36:19.132Z,7.10
2017-10-23T01:38:47.535Z,7.10
2017-10-23T01:41:15.916Z,7.20
2017-10-23T01:43:44.323Z,7.20
2017-10-23T01:46:12.711Z,7.10
2017-10-23T01:48:41.860Z,7.10
2017-10-23T01:51:10.262Z,7.10
2017-10-23T01:53:38.644Z,7.10
2017-10-23T01:56:07.032Z,7.10
2017-10-23T01:58:35.454Z,7.20
2017-10-23T02:01:03.827Z,7.10
2017-10-23T02:03:32.196Z,7.20
2017-10-23T02:06:00.594Z,7.20
2017-10-23T02:08:29.132Z,7.20
2017-10-23T02:10:57.510Z,7.20
2017-10-23T02:13:25.918Z,7.20
2017-10-23T02:15:55.056Z,7.10
2017-10-23T02:18:23.431Z,7.10
2017-10-23T02:20:52.126Z,7.20
2017-10-23T02:23:20.501Z,7.10
2017-10-23T02:25:48.877Z,7.10
2017-10-23T02:28:17.283Z,7.10
2017-10-23T02:30:45.660Z,7.10
2017-10-23T02:33:14.037Z,7.10
2017-10-23T02:35:42.447Z,7.10
2017-10-23T02:38:11.586Z,7.10
2017-10-23T02:40:39.954Z,7.10
2017-10-23T02:43:08.372Z,7.10
2017-10-23T02:45:36.748Z,7.10
2017-10-23T02:48:05.157Z,7.10
2017-10-23T02:50:33.560Z,7.10
2017-10-23T02:53:01.920Z,7.10
2017-10-23T02:55:30.290Z,7.10
2017-10-23T02:57:59.464Z,7.10
2017-10-23T03:00:27.917Z,7.10
2017-10-23T03:02:56.677Z,7.10
2017-10-23T03:05:25.520Z,7.10
2017-10-23T03:07:53.901Z,7.10
2017-10-23T03:10:22.725Z,7.10
2017-10-23T03:12:51.608Z,7.10
2017-10-23T03:15:20.463Z,7.10
2017-10-23T03:17:49.296Z,7.10
2017-10-23T03:20:18.241Z,7.10
2017-10-23T03:22:47.079Z,7.10
2017-10-23T03:25:15.907Z,7.10
2017-10-23T03:27:44.331Z,7.10
2017-10-23T03:30:12.713Z,7.10
2017-10-23T03:32:41.107Z,7.10
2017-10-23T03:35:09.599Z,7.10
2017-10-23T03:37:38.002Z,7.10
2017-10-23T03:40:06.401Z,7.20
2017-10-23T03:42:34.826Z,7.20
2017-10-23T03:45:03.241Z,7.20
2017-10-23T03:47:32.354Z,7.20
2017-10-23T03:50:00.808Z,7.20
2017-10-23T03:52:29.211Z,7.20
2017-10-23T03:54:57.859Z,7.20
2017-10-23T03:57:26.277Z,7.20
2017-10-23T03:59:54.674Z,7.20
2017-10-23T04:02:23.881Z,7.20
2017-10-23T04:04:52.294Z,7.20
2017-10-23T04:07:20.666Z,7.20
2017-10-23T04:09:49.061Z,7.20
2017-10-23T04:12:17.498Z,7.20
2017-10-23T04:14:45.886Z,7.20
2017-10-23T04:17:14.288Z,7.20
2017-10-23T04:19:42.725Z,7.20
2017-10-23T04:22:11.877Z,7.20
2017-10-23T04:24:40.276Z,7.20
2017-10-23T04:27:08.720Z,7.20
2017-10-23T04:29:37.095Z,7.20
2017-10-23T04:32:05.463Z,7.20
2017-10-23T04:34:33.879Z,7.20
2017-10-23T04:37:02.269Z,7.20
2017-10-23T04:39:30.659Z,7.10
2017-10-23T04:41:59.076Z,7.10
2017-10-23T04:44:27.454Z,7.20
2017-10-23T04:46:55.834Z,7.20
2017-10-23T04:49:24.266Z,7.20
2017-10-23T04:51:52.657Z,7.20
2017-10-23T04:54:21.803Z,7.10
2017-10-23T04:56:50.493Z,7.10
2017-10-23T04:59:18.885Z,7.10
2017-10-23T05:01:47.269Z,7.10
2017-10-23T05:04:15.709Z,7.10
2017-10-23T05:06:44.135Z,7.10
2017-10-23T05:09:12.511Z,7.00
2017-10-23T05:11:40.915Z,7.00
2017-10-23T05:14:10.061Z,7.10
2017-10-23T05:16:38.450Z,7.00
2017-10-23T05:19:06.896Z,7.10
2017-10-23T05:21:35.295Z,7.10
2017-10-23T05:24:03.676Z,7.10
2017-10-23T05:26:32.132Z,7.10
2017-10-23T05:29:00.534Z,7.10
2017-10-23T05:31:28.912Z,7.10
2017-10-23T05:33:57.342Z,7.10
2017-10-23T05:36:26.506Z,7.10
2017-10-23T05:38:54.891Z,7.10
2017-10-23T05:41:23.318Z,7.00
2017-10-23T05:43:51.692Z,7.00
2017-10-23T05:46:20.087Z,7.10
2017-10-23T05:48:48.506Z,7.10
2017-10-23T05:51:16.896Z,7.10
2017-10-23T05:53:45.290Z,7.10
2017-10-23T05:56:14.492Z,7.00
2017-10-23T05:58:43.634Z,7.00
2017-10-23T06:01:14.571Z,7.00
2017-10-23T06:03:43.003Z,7.00
2017-10-23T06:06:12.674Z,7.00
2017-10-23T06:08:41.066Z,7.00
2017-10-23T06:11:09.486Z,7.00
2017-10-23T06:13:37.883Z,7.00
2017-10-23T06:16:06.254Z,7.00
2017-10-23T06:18:34.675Z,7.00
2017-10-23T06:21:03.073Z,7.00
2017-10-23T06:23:31.458Z,7.00
2017-10-23T06:25:59.882Z,7.10
2017-10-23T06:28:28.279Z,7.10
2017-10-23T06:30:56.669Z,7.00
2017-10-23T06:33:25.095Z,7.10
2017-10-23T06:35:54.259Z,7.10
2017-10-23T06:38:22.648Z,7.10
2017-10-23T06:40:51.072Z,7.20
2017-10-23T06:43:19.465Z,7.20
2017-10-23T06:45:47.851Z,7.20
2017-10-23T06:48:16.266Z,7.20
2017-10-23T06:50:45.438Z,7.20
2017-10-23T06:53:13.818Z,7.20
2017-10-23T06:55:42.238Z,7.20
2017-10-23T06:58:11.382Z,7.20
2017-10-23T07:00:39.767Z,7.20
2017-10-23T07:03:08.224Z,7.20
2017-10-23T07:05:36.608Z,7.20
2017-10-23T07:08:04.980Z,7.30
2017-10-23T07:10:33.674Z,7.30
2017-10-23T07:13:02.074Z,7.30
2017-10-23T07:15:30.467Z,7.30
2017-10-23T07:17:58.876Z,7.30
2017-10-23T07:20:27.256Z,7.40
2017-10-23T07:22:55.773Z,7.40
2017-10-23T07:25:24.173Z,7.40
2017-10-23T07:27:52.548Z,7.40
2017-10-23T07:30:20.952Z,7.50
2017-10-23T07:32:49.370Z,7.50
2017-10-23T07:35:17.794Z,7.50
2017-10-23T07:37:46.161Z,7.40
2017-10-23T07:40:14.574Z,7.40
2017-10-23T07:42:43.714Z,7.40
2017-10-23T07:45:14.910Z,7.40
2017-10-23T07:47:44.082Z,7.40
2017-10-23T07:50:12.490Z,7.40
2017-10-23T07:52:41.640Z,7.40
2017-10-23T07:55:10.072Z,7.40
2017-10-23T07:57:39.207Z,7.40
2017-10-23T08:00:07.651Z,7.40
2017-10-23T08:02:36.890Z,7.40
2017-10-23T08:05:05.271Z,7.40
2017-10-23T08:07:33.645Z,7.40
2017-10-23T08:10:02.128Z,7.40
2017-10-23T08:12:30.508Z,7.40
2017-10-23T08:14:59.275Z,7.50
2017-10-23T08:17:27.689Z,7.60
2017-10-23T08:19:56.064Z,7.70
2017-10-23T08:22:24.436Z,7.70
2017-10-23T08:24:52.834Z,7.70
2017-10-23T08:27:21.211Z,7.60
2017-10-23T08:29:49.579Z,7.60
2017-10-23T08:32:18.158Z,7.50
2017-10-23T08:34:46.539Z,7.50
2017-10-23T08:37:14.914Z,7.60
2017-10-23T08:39:43.330Z,7.80
2017-10-23T08:42:12.485Z,8.10
2017-10-23T08:44:40.866Z,8.10
2017-10-23T08:47:09.284Z,8.40
2017-10-23T08:49:38.438Z,9.20
2017-10-23T08:52:06.839Z,9.10
2017-10-23T08:54:35.252Z,9.90
2017-10-23T08:57:04.413Z,10.90
2017-10-23T08:59:32.801Z,10.90
2017-10-23T09:02:01.215Z,11.00
2017-10-23T09:04:29.626Z,10.50
2017-10-23T09:06:58.024Z,10.20
2017-10-23T09:09:26.491Z,10.00
2017-10-23T09:11:54.874Z,10.10
2017-10-23T09:14:23.253Z,9.80
2017-10-23T09:16:51.659Z,9.70
2017-10-23T09:19:20.039Z,9.50
2017-10-23T09:21:49.196Z,9.50
2017-10-23T09:24:17.651Z,9.60
2017-10-23T09:26:46.071Z,9.60
2017-10-23T09:29:14.471Z,9.30
2017-10-23T09:31:43.647Z,9.20
2017-10-23T09:34:12.031Z,9.10
2017-10-23T09:36:40.431Z,9.10
2017-10-23T09:39:09.611Z,9.20
2017-10-23T09:41:38.007Z,9.20
2017-10-23T09:44:07.151Z,9.50
2017-10-23T09:46:35.558Z,9.50
2017-10-23T09:49:03.958Z,9.40
2017-10-23T09:51:33.113Z,9.30
2017-10-23T09:54:01.700Z,9.30
2017-10-23T09:56:30.078Z,9.10
2017-10-23T09:58:58.462Z,9.10
2017-10-23T10:01:26.868Z,9.20
2017-10-23T10:03:55.243Z,9.20
2017-10-23T10:06:23.622Z,9.20
2017-10-23T10:08:52.050Z,9.20
2017-10-23T10:11:20.424Z,9.30
2017-10-23T10:13:48.806Z,9.20
2017-10-23T10:16:17.215Z,9.10
2017-10-23T10:18:45.584Z,9.10
2017-10-23T10:21:13.959Z,9.10
2017-10-23T10:23:42.358Z,9.20
2017-10-23T10:26:10.734Z,9.10
2017-10-23T10:28:39.107Z,9.10
2017-10-23T10:31:07.524Z,9.10
2017-10-23T10:33:36.683Z,8.90
2017-10-23T10:36:05.064Z,8.90
2017-10-23T10:38:33.475Z,9.00
2017-10-23T10:41:02.632Z,9.10
2017-10-23T10:43:31.015Z,9.10
2017-10-23T10:45:59.463Z,9.30
2017-10-23T10:48:27.843Z,9.10
2017-10-23T10:50:56.219Z,9.20
2017-10-23T10:53:24.647Z,9.20
2017-10-23T10:55:53.023Z,9.40
2017-10-23T10:58:21.389Z,9.50
2017-10-23T11:00:49.813Z,10.30
2017-10-23T11:03:18.959Z,10.60
2017-10-23T11:05:47.338Z,10.60
2017-10-23T11:08:15.757Z,10.50
2017-10-23T11:10:44.899Z,11.40
2017-10-23T11:13:13.273Z,11.40
2017-10-23T11:15:41.705Z,11.90
2017-10-23T11:18:10.854Z,11.90
2017-10-23T11:20:39.276Z,11.90
2017-10-23T11:23:07.712Z,11.60
2017-10-23T11:25:36.121Z,11.30
2017-10-23T11:28:04.499Z,11.20
2017-10-23T11:30:32.997Z,10.80
2017-10-23T11:33:01.494Z,10.80
2017-10-23T11:35:29.864Z,11.10
2017-10-23T11:37:59.051Z,11.00
2017-10-23T11:40:27.552Z,11.00
2017-10-23T11:42:55.976Z,11.20
2017-10-23T11:45:24.384Z,11.00
2017-10-23T11:47:52.762Z,10.90
2017-10-23T11:50:21.147Z,10.50
2017-10-23T11:52:49.567Z,10.20
2017-10-23T11:55:17.948Z,10.00
2017-10-23T11:57:46.323Z,10.10
2017-10-23T12:00:14.760Z,10.50
2017-10-23T12:02:43.147Z,10.50
2017-10-23T12:05:12.303Z,10.60
2017-10-23T12:07:41.395Z,10.60
2017-10-23T12:10:09.777Z,10.50
2017-10-23T12:12:38.158Z,10.70
2017-10-23T12:15:06.563Z,11.20
2017-10-23T12:17:34.975Z,11.30
2017-10-23T12:20:03.364Z,11.40
2017-10-23T12:22:31.804Z,11.50
2017-10-23T12:25:00.565Z,11.20
2017-10-23T12:27:28.940Z,11.00
2017-10-23T12:29:57.364Z,10.90
2017-10-23T12:32:26.523Z,10.70
2017-10-23T12:34:54.898Z,10.70
2017-10-23T12:37:23.317Z,10.60
2017-10-23T12:39:52.467Z,10.60
2017-10-23T12:42:20.875Z,10.50
2017-10-23T12:44:49.427Z,10.50
2017-10-23T12:47:17.808Z,10.50
2017-10-23T12:49:46.285Z,10.50
2017-10-23T12:52:14.716Z,10.40
2017-10-23T12:54:43.867Z,10.40
2017-10-23T12:57:12.956Z,10.40
2017-10-23T12:59:41.387Z,10.30
2017-10-23T13:02:10.539Z,10.30
2017-10-23T13:04:38.916Z,10.30
2017-10-23T13:07:07.362Z,10.40
2017-10-23T13:09:35.768Z,10.40
2017-10-23T13:12:04.167Z,10.40
2017-10-23T13:14:32.583Z,10.40
2017-10-23T13:17:01.742Z,10.00
2017-10-23T13:19:30.121Z,10.00
2017-10-23T13:21:58.527Z,9.90
2017-10-23T13:24:27.691Z,9.70
2017-10-23T13:26:56.071Z,9.70
2017-10-23T13:29:24.632Z,9.70
2017-10-23T13:31:53.005Z,9.60
2017-10-23T13:34:21.370Z,9.50
2017-10-23T13:36:49.761Z,9.50
2017-10-23T13:39:18.138Z,9.40
2017-10-23T13:41:46.520Z,9.40
2017-10-23T13:44:14.925Z,9.40
2017-10-23T13:46:43.302Z,9.50
2017-10-23T13:49:11.739Z,9.50
2017-10-23T13:51:40.168Z,9.50
2017-10-23T13:54:08.547Z,9.50
2017-10-23T13:56:36.924Z,9.50
2017-10-23T13:59:05.386Z,9.40
2017-10-23T14:01:33.754Z,9.40
2017-10-23T14:04:02.119Z,9.40
2017-10-23T14:06:30.621Z,9.40
2017-10-23T14:08:58.997Z,9.40
2017-10-23T14:11:27.381Z,9.30
2017-10-23T14:13:55.786Z,9.30
2017-10-23T14:16:24.171Z,9.30
2017-10-23T14:18:52.545Z,9.20
2017-10-23T14:21:20.995Z,9.30
2017-10-23T14:23:49.391Z,9.30
2017-10-23T14:26:17.780Z,9.30
2017-10-23T14:28:46.260Z,9.30
2017-10-23T14:31:15.455Z,9.20
2017-10-23T14:33:43.870Z,9.30
2017-10-23T14:36:12.285Z,9.30
2017-10-23T14:38:40.673Z,9.30
2017-10-23T14:41:09.076Z,9.30
2017-10-23T14:43:37.521Z,9.20
2017-10-23T14:46:05.938Z,9.20
2017-10-23T14:48:34.319Z,9.10
2017-10-23T14:51:02.792Z,9.00
2017-10-23T14:53:31.258Z,8.90
2017-10-23T14:55:59.675Z,8.90
2017-10-23T14:58:28.144Z,8.80
2017-10-23T15:00:57.282Z,8.80
2017-10-23T15:03:25.683Z,8.80
2017-10-23T15:05:54.093Z,8.80
2017-10-23T15:08:23.233Z,8.80
2017-10-23T15:10:51.673Z,8.80
2017-10-23T15:13:20.850Z,8.80
2017-10-23T15:15:50.884Z,8.80
2017-10-23T15:18:19.313Z,8.70
2017-10-23T15:20:47.771Z,8.80
2017-10-23T15:23:16.188Z,8.80
2017-10-23T15:25:44.571Z,8.70
2017-10-23T15:28:12.978Z,8.70
2017-10-23T15:30:42.152Z,8.70
2017-10-23T15:33:10.618Z,8.70
2017-10-23T15:35:39.035Z,8.70
2017-10-23T15:38:07.415Z,8.70
2017-10-23T15:40:35.796Z,8.70
2017-10-23T15:43:04.228Z,8.60
2017-10-23T15:45:32.599Z,8.60
2017-10-23T15:48:00.964Z,8.60
2017-10-23T15:50:29.363Z,8.60
2017-10-23T15:52:57.737Z,8.60
2017-10-23T15:55:26.103Z,8.50
2017-10-23T15:57:54.502Z,8.50
2017-10-23T16:00:22.882Z,8.50
2017-10-23T16:02:51.570Z,8.50
2017-10-23T16:05:19.975Z,8.50
2017-10-23T16:07:48.365Z,8.50
2017-10-23T16:10:17.319Z,8.50
2017-10-23T16:12:46.050Z,8.50
2017-10-23T16:15:14.559Z,8.40
2017-10-23T16:17:43.467Z,8.40
2017-10-23T16:20:11.887Z,8.40
2017-10-23T16:22:40.276Z,8.40
2017-10-23T16:25:08.651Z,8.40
2017-10-23T16:27:37.067Z,8.40
2017-10-23T16:30:05.441Z,8.40
2017-10-23T16:32:33.814Z,8.40
2017-10-23T16:35:02.974Z,8.40
2017-10-23T16:37:31.380Z,8.40
2017-10-23T16:40:00.519Z,8.40
2017-10-23T16:42:30.111Z,8.40
2017-10-23T16:44:58.502Z,8.40
2017-10-23T16:47:26.874Z,8.40
2017-10-23T16:49:55.694Z,8.40
2017-10-23T16:52:24.870Z,8.40
2017-10-23T16:54:53.243Z,8.40
2017-10-23T16:57:21.638Z,8.40
2017-10-23T16:59:50.016Z,8.40
2017-10-23T17:02:18.462Z,8.50
2017-10-23T17:04:46.883Z,8.40
2017-10-23T17:07:15.256Z,8.40
2017-10-23T17:09:43.721Z,8.40
2017-10-23T17:12:15.992Z,8.40
2017-10-23T17:14:44.380Z,8.40
2017-10-23T17:17:12.760Z,8.40
2017-10-23T17:19:41.165Z,8.40
2017-10-23T17:22:09.543Z,8.40
2017-10-23T17:24:37.910Z,8.40
2017-10-23T17:27:06.350Z,8.40
2017-10-23T17:29:34.733Z,8.40
2017-10-23T17:32:03.222Z,8.40
2017-10-23T17:34:31.648Z,8.40
2017-10-23T17:37:00.796Z,8.30
2017-10-23T17:39:29.175Z,8.30
2017-10-23T17:41:57.591Z,8.30
2017-10-23T17:44:25.985Z,8.30
2017-10-23T17:46:55.131Z,8.20
2017-10-23T17:49:23.578Z,8.20
2017-10-23T17:51:51.967Z,8.30
2017-10-23T17:54:20.338Z,8.20
2017-10-23T17:56:48.791Z,8.20
2017-10-23T17:59:17.943Z,8.20
2017-10-23T18:01:46.315Z,8.20
2017-10-23T18:04:14.792Z,8.20
2017-10-23T18:06:43.164Z,8.20
2017-10-23T18:09:11.560Z,8.20
2017-10-23T18:11:40.040Z,8.20
2017-10-23T18:14:08.420Z,8.20
2017-10-23T18:16:36.796Z,8.20
2017-10-23T18:19:05.231Z,8.20
2017-10-23T18:21:34.371Z,8.20
2017-10-23T18:24:02.748Z,8.20
2017-10-23T18:26:31.160Z,8.20
2017-10-23T18:28:59.743Z,8.30
2017-10-23T18:31:28.152Z,8.30
2017-10-23T18:33:56.563Z,8.30
2017-10-23T18:36:25.367Z,8.30
2017-10-23T18:38:53.754Z,8.40
2017-10-23T18:41:22.532Z,8.30
2017-10-23T18:43:50.928Z,8.40
2017-10-23T18:46:19.300Z,8.40
2017-10-23T18:48:47.789Z,8.30
2017-10-23T18:51:16.215Z,8.30
2017-10-23T18:53:45.223Z,8.30
2017-10-23T18:56:13.829Z,8.30
2017-10-23T18:58:42.402Z,8.30
2017-10-23T19:01:13.053Z,8.30
2017-10-23T19:03:42.282Z,8.30
2017-10-23T19:06:11.287Z,8.30
2017-10-23T19:08:39.687Z,8.30
2017-10-23T19:11:08.253Z,8.30
2017-10-23T19:13:36.655Z,8.30
2017-10-23T19:16:05.098Z,8.30
2017-10-23T19:18:34.894Z,8.30
2017-10-23T19:21:04.048Z,8.30
2017-10-23T19:23:32.458Z,8.30
2017-10-23T19:26:01.130Z,8.30
2017-10-23T19:28:29.917Z,8.30
2017-10-23T19:30:58.609Z,8.30
2017-10-23T19:33:28.052Z,8.30
2017-10-23T19:35:56.554Z,8.30
2017-10-23T19:38:25.372Z,8.30
2017-10-23T19:40:53.774Z,8.30
2017-10-23T19:43:23.654Z,8.30
2017-10-23T19:45:52.749Z,8.20
2017-10-23T19:48:22.368Z,8.30
2017-10-23T19:50:51.143Z,8.30
2017-10-23T19:53:20.037Z,8.30
2017-10-23T19:55:50.217Z,8.30
2017-10-23T19:58:18.716Z,8.30
2017-10-23T20:00:47.730Z,8.30
2017-10-23T20:03:16.591Z,8.30
2017-10-23T20:05:45.510Z,8.30
2017-10-23T20:08:15.150Z,8.30
2017-10-23T20:10:44.359Z,8.30
2017-10-23T20:13:14.182Z,8.30
2017-10-23T20:15:43.020Z,8.30
2017-10-23T20:18:12.009Z,8.30
2017-10-23T20:20:40.900Z,8.30
2017-10-23T20:23:09.551Z,8.30
2017-10-23T20:25:39.429Z,8.30
2017-10-23T20:28:09.385Z,8.30
2017-10-23T20:30:38.200Z,8.30
2017-10-23T20:33:06.755Z,8.30
2017-10-23T20:35:36.091Z,8.40
2017-10-23T20:38:04.880Z,8.40
2017-10-23T20:40:33.312Z,8.40
2017-10-23T20:43:02.960Z,8.40
2017-10-23T20:45:31.462Z,8.40
2017-10-23T20:48:00.225Z,8.40
2017-10-23T20:50:28.888Z,8.40
2017-10-23T20:52:57.400Z,8.40
2017-10-23T20:55:26.171Z,8.50
2017-10-23T20:57:54.643Z,8.40
2017-10-23T21:00:23.480Z,8.40
2017-10-23T21:02:53.160Z,8.40
2017-10-23T21:05:22.118Z,8.40
2017-10-23T21:07:51.151Z,8.40
2017-10-23T21:10:19.832Z,8.40
2017-10-23T21:12:48.255Z,8.50
2017-10-23T21:15:17.415Z,8.40
2017-10-23T21:17:46.655Z,8.40
2017-10-23T21:20:16.431Z,8.40
2017-10-23T21:22:45.154Z,8.40
2017-10-23T21:25:15.526Z,8.40
2017-10-23T21:27:44.417Z,8.40
2017-10-23T21:30:13.243Z,8.40
2017-10-23T21:32:42.879Z,8.40
2017-10-23T21:35:11.600Z,8.40
2017-10-23T21:37:40.308Z,8.40
2017-10-23T21:40:09.474Z,8.40
2017-10-23T21:42:37.895Z,8.40
2017-10-23T21:45:06.552Z,8.30
2017-10-23T21:47:35.281Z,8.30
2017-10-23T21:50:04.140Z,8.30
2017-10-23T21:52:33.616Z,8.30
2017-10-23T21:55:02.505Z,8.30
2017-10-23T21:57:30.950Z,8.30
2017-10-23T22:00:00.088Z,8.30
2017-10-23T22:02:28.555Z,8.30
2017-10-23T22:04:56.931Z,8.30
2017-10-23T22:07:25.689Z,8.30
2017-10-23T22:09:54.826Z,8.30
2017-10-23T22:12:23.836Z,8.30
2017-10-23T22:14:52.228Z,8.30
2017-10-23T22:17:20.635Z,8.30
2017-10-23T22:19:49.977Z,8.30
2017-10-23T22:22:18.362Z,8.20
2017-10-23T22:24:46.740Z,8.30
2017-10-23T22:27:15.735Z,8.30
2017-10-23T22:29:45.742Z,8.30
2017-10-23T22:32:14.641Z,8.30
2017-10-23T22:34:43.432Z,8.20
2017-10-23T22:37:13.255Z,8.20
2017-10-23T22:39:42.251Z,8.20
2017-10-23T22:42:11.750Z,8.20
2017-10-23T22:44:41.142Z,8.20
2017-10-23T22:47:10.544Z,8.20
2017-10-23T22:49:40.252Z,8.20
2017-10-23T22:52:08.643Z,8.20
2017-10-23T22:54:37.427Z,8.20
2017-10-23T22:57:06.110Z,8.20
2017-10-23T22:59:34.506Z,8.20
2017-10-23T23:02:03.246Z,8.20
2017-10-23T23:04:31.695Z,8.20
2017-10-23T23:07:00.948Z,8.20
2017-10-23T23:09:29.367Z,8.20
2017-10-23T23:11:57.737Z,8.20
2017-10-23T23:14:26.295Z,8.20
2017-10-23T23:16:54.767Z,8.20
2017-10-23T23:19:23.354Z,8.20
2017-10-23T23:21:52.583Z,8.20
2017-10-23T23:24:21.241Z,8.20
2017-10-23T23:26:50.570Z,8.20
2017-10-23T23:29:19.398Z,8.20
2017-10-23T23:31:47.767Z,8.20
2017-10-23T23:34:16.527Z,8.20
2017-10-23T23:36:44.894Z,8.20
2017-10-23T23:39:13.259Z,8.20
2017-10-23T23:41:41.642Z,8.20
2017-10-23T23:44:10.033Z,8.20
2017-10-23T23:46:38.544Z,8.20
2017-10-23T23:49:08.161Z,8.20
2017-10-23T23:51:36.559Z,8.20
2017-10-23T23:54:04.959Z,8.20
2017-10-23T23:56:33.572Z,8.20
2017-10-23T23:59:02.013Z,8.20
